Franklin, KY

12:37 AM CDT on October 31, 2014 (GMT -0500)
Nashville International | Change Station
CLOSE
Current Station
Airport
Location: Nashville,
Elevation: 597 ft
Nearby Weather Stations
Active Advisory: Freeze Watch

Elev 597 ft 36.12 °N, 86.69 °W | Updated 44 minutes ago

Overcast
Overcast
49 °F
Feels Like 49 °F
N
0
Wind Variable Wind from North

Today
High -- | Low -- °F
--% Chance of Precip.
Yesterday
High -- | Low -- °F
Precip. -- in
7:08 AM 5:50 PM
First Quarter, 51% visible
Pressure 30.04 in
Visibility 9.0 miles
Clouds Few 7000 ft
Overcast 9000 ft
Dew Point 44 °F
Humidity 83%
Rainfall 0.00 in
Snow Depth Not available.
UV 0 out of 12
Pollen .40 out of 12
Air Quality Not available.
Flu Activity Not available.
METAR KBNA 310453Z 00000KT 9SM FEW070 OVC090 09/07 A3005 RMK AO2 SLP172 T00940067

More Conditions Fewer Conditions

Pressure 30.04 in
Visibility 9.0 miles
Clouds Few 7000 ft
Overcast 9000 ft
Dew Point 44 °F
Humidity 83%
Rainfall 0.00 in
Snow Depth Not available.
UV 0 out of 12
Pollen .40 out of 12
Air Quality Not available.
Flu Activity Not available.
METAR KBNA 310453Z 00000KT 9SM FEW070 OVC090 09/07 A3005 RMK AO2 SLP172 T00940067

More Conditions Fewer Conditions

10-Day Weather Forecast

Almanac

Astronomy

Oct. 31, 2014 Rise Set
Actual Time
Civil Twilight
Nautical Twilight
Astronomical Twilight
Moon
Length of Visible Light
Length of Day
Tomorrow will be .
, % of the Moon is Illuminated

Today's Extremes

State Highs State Lows

Community

WunderPhotos

Upload Photos

1,766,569 photos uploaded!

WunderBlogs® & News

Nearby

Air Quality

  Air Quality AQ Index Pollutant
Not available.

Snow Depth

Station Depth Elevation

Earthquake Activity

City Distance Mag. Time & Date
Minimum magnitude displayed is 2.5.

Coastal Water Temperatures

Place Temperature

Nearby Weather Stations